sensor_id;sensor_type;location;lat;lon;timestamp;P1;durP1;ratioP1;P2;durP2;ratioP2
15358;SDS011;7779;49.596;11.070;2024-02-23T00:01:49;0.40;;;0.10;;
15358;SDS011;7779;49.596;11.070;2024-02-23T00:04:16;0.50;;;0.20;;
15358;SDS011;7779;49.596;11.070;2024-02-23T00:06:44;0.87;;;0.20;;
15358;SDS011;7779;49.596;11.070;2024-02-23T00:09:10;1.13;;;0.20;;
15358;SDS011;7779;49.596;11.070;2024-02-23T00:11:38;0.70;;;0.10;;
15358;SDS011;7779;49.596;11.070;2024-02-23T00:14:09;0.10;;;0.10;;
15358;SDS011;7779;49.596;11.070;2024-02-23T00:16:39;0.63;;;0.10;;
15358;SDS011;7779;49.596;11.070;2024-02-23T00:19:08;0.40;;;0.20;;
15358;SDS011;7779;49.596;11.070;2024-02-23T00:21:35;0.30;;;0.10;;
15358;SDS011;7779;49.596;11.070;2024-02-23T00:24:05;0.23;;;0.10;;
15358;SDS011;7779;49.596;11.070;2024-02-23T00:26:31;0.70;;;0.20;;
15358;SDS011;7779;49.596;11.070;2024-02-23T00:28:57;0.67;;;0.10;;
15358;SDS011;7779;49.596;11.070;2024-02-23T00:31:23;0.57;;;0.20;;
15358;SDS011;7779;49.596;11.070;2024-02-23T00:33:48;0.30;;;0.20;;
15358;SDS011;7779;49.596;11.070;2024-02-23T00:36:14;0.30;;;0.10;;
15358;SDS011;7779;49.596;11.070;2024-02-23T00:38:40;1.43;;;0.10;;
15358;SDS011;7779;49.596;11.070;2024-02-23T00:41:06;0.20;;;0.00;;
15358;SDS011;7779;49.596;11.070;2024-02-23T00:43:41;0.10;;;0.00;;
15358;SDS011;7779;49.596;11.070;2024-02-23T00:46:07;0.20;;;0.10;;
15358;SDS011;7779;49.596;11.070;2024-02-23T00:48:33;1.43;;;0.10;;
15358;SDS011;7779;49.596;11.070;2024-02-23T00:51:01;0.10;;;0.00;;
15358;SDS011;7779;49.596;11.070;2024-02-23T00:53:28;0.00;;;0.00;;
15358;SDS011;7779;49.596;11.070;2024-02-23T00:55:55;0.07;;;0.00;;
15358;SDS011;7779;49.596;11.070;2024-02-23T00:58:21;0.17;;;0.10;;
15358;SDS011;7779;49.596;11.070;2024-02-23T01:00:47;0.00;;;0.00;;
15358;SDS011;7779;49.596;11.070;2024-02-23T01:03:12;0.10;;;0.10;;
15358;SDS011;7779;49.596;11.070;2024-02-23T01:05:38;0.10;;;0.10;;
15358;SDS011;7779;49.596;11.070;2024-02-23T01:08:04;0.00;;;0.00;;
15358;SDS011;7779;49.596;11.070;2024-02-23T01:10:30;0.10;;;0.00;;
15358;SDS011;7779;49.596;11.070;2024-02-23T01:12:57;0.30;;;0.00;;
15358;SDS011;7779;49.596;11.070;2024-02-23T01:15:22;1.27;;;0.10;;
15358;SDS011;7779;49.596;11.070;2024-02-23T01:17:48;1.17;;;0.20;;
15358;SDS011;7779;49.596;11.070;2024-02-23T01:20:14;0.40;;;0.10;;
15358;SDS011;7779;49.596;11.070;2024-02-23T01:22:39;0.33;;;0.10;;
15358;SDS011;7779;49.596;11.070;2024-02-23T01:25:05;0.10;;;0.00;;
15358;SDS011;7779;49.596;11.070;2024-02-23T01:27:31;0.10;;;0.07;;
15358;SDS011;7779;49.596;11.070;2024-02-23T01:29:57;0.83;;;0.03;;
15358;SDS011;7779;49.596;11.070;2024-02-23T01:32:22;0.13;;;0.03;;
15358;SDS011;7779;49.596;11.070;2024-02-23T01:34:48;0.93;;;0.00;;
15358;SDS011;7779;49.596;11.070;2024-02-23T01:37:14;0.67;;;0.10;;
15358;SDS011;7779;49.596;11.070;2024-02-23T01:39:39;0.10;;;0.03;;
15358;SDS011;7779;49.596;11.070;2024-02-23T01:42:05;0.80;;;0.10;;
15358;SDS011;7779;49.596;11.070;2024-02-23T01:44:31;0.30;;;0.10;;
15358;SDS011;7779;49.596;11.070;2024-02-23T01:46:57;0.93;;;0.10;;
15358;SDS011;7779;49.596;11.070;2024-02-23T01:49:23;0.10;;;0.10;;
15358;SDS011;7779;49.596;11.070;2024-02-23T01:51:55;0.57;;;0.10;;
15358;SDS011;7779;49.596;11.070;2024-02-23T01:54:22;0.00;;;0.00;;
15358;SDS011;7779;49.596;11.070;2024-02-23T01:56:48;0.13;;;0.10;;
15358;SDS011;7779;49.596;11.070;2024-02-23T01:59:15;0.43;;;0.10;;
15358;SDS011;7779;49.596;11.070;2024-02-23T02:01:42;0.30;;;0.20;;
15358;SDS011;7779;49.596;11.070;2024-02-23T02:04:09;0.20;;;0.10;;
15358;SDS011;7779;49.596;11.070;2024-02-23T02:06:35;0.60;;;0.10;;
15358;SDS011;7779;49.596;11.070;2024-02-23T02:09:01;0.10;;;0.10;;
15358;SDS011;7779;49.596;11.070;2024-02-23T02:11:27;1.07;;;0.20;;
15358;SDS011;7779;49.596;11.070;2024-02-23T02:13:53;0.53;;;0.00;;
15358;SDS011;7779;49.596;11.070;2024-02-23T02:16:19;1.20;;;0.30;;
15358;SDS011;7779;49.596;11.070;2024-02-23T02:18:45;3.37;;;0.23;;
15358;SDS011;7779;49.596;11.070;2024-02-23T02:21:11;0.40;;;0.10;;
15358;SDS011;7779;49.596;11.070;2024-02-23T02:23:37;0.43;;;0.10;;
15358;SDS011;7779;49.596;11.070;2024-02-23T02:26:03;0.77;;;0.10;;
15358;SDS011;7779;49.596;11.070;2024-02-23T02:28:29;0.23;;;0.20;;
15358;SDS011;7779;49.596;11.070;2024-02-23T02:30:55;0.20;;;0.10;;
15358;SDS011;7779;49.596;11.070;2024-02-23T02:33:21;0.30;;;0.23;;
15358;SDS011;7779;49.596;11.070;2024-02-23T02:35:47;0.30;;;0.10;;
15358;SDS011;7779;49.596;11.070;2024-02-23T02:38:15;0.70;;;0.20;;
15358;SDS011;7779;49.596;11.070;2024-02-23T02:40:41;0.50;;;0.17;;
15358;SDS011;7779;49.596;11.070;2024-02-23T02:43:07;0.33;;;0.10;;
15358;SDS011;7779;49.596;11.070;2024-02-23T02:45:33;0.33;;;0.20;;
15358;SDS011;7779;49.596;11.070;2024-02-23T02:48:02;1.30;;;0.30;;
15358;SDS011;7779;49.596;11.070;2024-02-23T02:50:28;0.40;;;0.20;;
15358;SDS011;7779;49.596;11.070;2024-02-23T02:52:54;0.77;;;0.30;;
15358;SDS011;7779;49.596;11.070;2024-02-23T02:55:20;0.50;;;0.20;;
15358;SDS011;7779;49.596;11.070;2024-02-23T02:57:45;0.93;;;0.30;;
15358;SDS011;7779;49.596;11.070;2024-02-23T03:00:11;0.47;;;0.20;;
15358;SDS011;7779;49.596;11.070;2024-02-23T03:02:37;1.63;;;0.20;;
15358;SDS011;7779;49.596;11.070;2024-02-23T03:05:03;0.67;;;0.20;;
15358;SDS011;7779;49.596;11.070;2024-02-23T03:07:29;0.77;;;0.20;;
15358;SDS011;7779;49.596;11.070;2024-02-23T03:09:55;0.50;;;0.30;;
15358;SDS011;7779;49.596;11.070;2024-02-23T03:12:21;1.30;;;0.40;;
15358;SDS011;7779;49.596;11.070;2024-02-23T03:14:47;1.87;;;0.30;;
15358;SDS011;7779;49.596;11.070;2024-02-23T03:17:13;0.80;;;0.20;;
15358;SDS011;7779;49.596;11.070;2024-02-23T03:19:38;1.77;;;0.37;;
15358;SDS011;7779;49.596;11.070;2024-02-23T03:22:04;0.77;;;0.20;;
15358;SDS011;7779;49.596;11.070;2024-02-23T03:24:30;0.60;;;0.30;;
15358;SDS011;7779;49.596;11.070;2024-02-23T03:26:56;0.60;;;0.20;;
15358;SDS011;7779;49.596;11.070;2024-02-23T03:29:22;1.70;;;0.50;;
15358;SDS011;7779;49.596;11.070;2024-02-23T03:31:54;0.77;;;0.30;;
15358;SDS011;7779;49.596;11.070;2024-02-23T03:34:20;0.97;;;0.27;;
15358;SDS011;7779;49.596;11.070;2024-02-23T03:36:46;1.90;;;0.57;;
15358;SDS011;7779;49.596;11.070;2024-02-23T03:39:12;0.77;;;0.20;;
15358;SDS011;7779;49.596;11.070;2024-02-23T03:41:39;0.70;;;0.30;;
15358;SDS011;7779;49.596;11.070;2024-02-23T03:44:04;0.80;;;0.23;;
15358;SDS011;7779;49.596;11.070;2024-02-23T03:46:30;0.40;;;0.20;;
15358;SDS011;7779;49.596;11.070;2024-02-23T03:48:56;1.20;;;0.30;;
15358;SDS011;7779;49.596;11.070;2024-02-23T03:51:22;2.13;;;0.30;;
15358;SDS011;7779;49.596;11.070;2024-02-23T03:53:48;2.07;;;0.43;;
15358;SDS011;7779;49.596;11.070;2024-02-23T03:56:15;1.63;;;0.40;;
15358;SDS011;7779;49.596;11.070;2024-02-23T03:58:41;1.90;;;0.30;;
15358;SDS011;7779;49.596;11.070;2024-02-23T04:01:06;3.17;;;0.60;;
15358;SDS011;7779;49.596;11.070;2024-02-23T04:03:32;1.00;;;0.30;;
15358;SDS011;7779;49.596;11.070;2024-02-23T04:05:58;1.63;;;0.40;;
15358;SDS011;7779;49.596;11.070;2024-02-23T04:08:24;2.43;;;0.73;;
15358;SDS011;7779;49.596;11.070;2024-02-23T04:10:49;0.80;;;0.30;;
15358;SDS011;7779;49.596;11.070;2024-02-23T04:13:15;0.87;;;0.30;;
15358;SDS011;7779;49.596;11.070;2024-02-23T04:15:42;1.43;;;0.30;;
15358;SDS011;7779;49.596;11.070;2024-02-23T04:18:09;1.77;;;0.30;;
15358;SDS011;7779;49.596;11.070;2024-02-23T04:20:34;1.97;;;0.30;;
15358;SDS011;7779;49.596;11.070;2024-02-23T04:23:00;1.13;;;0.30;;
15358;SDS011;7779;49.596;11.070;2024-02-23T04:25:26;1.43;;;0.30;;
15358;SDS011;7779;49.596;11.070;2024-02-23T04:27:51;1.10;;;0.37;;
15358;SDS011;7779;49.596;11.070;2024-02-23T04:30:17;0.73;;;0.37;;
15358;SDS011;7779;49.596;11.070;2024-02-23T04:32:43;1.33;;;0.70;;
15358;SDS011;7779;49.596;11.070;2024-02-23T04:35:09;0.97;;;0.27;;
15358;SDS011;7779;49.596;11.070;2024-02-23T04:37:35;2.87;;;0.97;;
15358;SDS011;7779;49.596;11.070;2024-02-23T04:40:01;0.60;;;0.30;;
15358;SDS011;7779;49.596;11.070;2024-02-23T04:42:27;2.47;;;0.50;;
15358;SDS011;7779;49.596;11.070;2024-02-23T04:44:53;1.43;;;0.40;;
15358;SDS011;7779;49.596;11.070;2024-02-23T04:47:20;2.80;;;0.40;;
15358;SDS011;7779;49.596;11.070;2024-02-23T04:49:46;1.23;;;0.40;;
15358;SDS011;7779;49.596;11.070;2024-02-23T04:52:11;0.90;;;0.30;;
15358;SDS011;7779;49.596;11.070;2024-02-23T04:54:37;3.03;;;0.50;;
15358;SDS011;7779;49.596;11.070;2024-02-23T04:57:03;3.47;;;0.60;;
15358;SDS011;7779;49.596;11.070;2024-02-23T04:59:29;1.63;;;0.30;;
15358;SDS011;7779;49.596;11.070;2024-02-23T05:01:57;1.10;;;0.33;;
15358;SDS011;7779;49.596;11.070;2024-02-23T05:04:23;1.13;;;0.30;;
15358;SDS011;7779;49.596;11.070;2024-02-23T05:06:48;1.60;;;0.53;;
15358;SDS011;7779;49.596;11.070;2024-02-23T05:09:14;0.97;;;0.33;;
15358;SDS011;7779;49.596;11.070;2024-02-23T05:11:48;2.13;;;0.67;;
15358;SDS011;7779;49.596;11.070;2024-02-23T05:14:14;1.17;;;0.40;;
15358;SDS011;7779;49.596;11.070;2024-02-23T05:16:40;1.73;;;0.43;;
15358;SDS011;7779;49.596;11.070;2024-02-23T05:19:06;2.10;;;0.33;;
15358;SDS011;7779;49.596;11.070;2024-02-23T05:21:31;1.80;;;0.50;;
15358;SDS011;7779;49.596;11.070;2024-02-23T05:23:57;2.90;;;0.40;;
15358;SDS011;7779;49.596;11.070;2024-02-23T05:26:23;1.67;;;0.50;;
15358;SDS011;7779;49.596;11.070;2024-02-23T05:28:48;1.47;;;0.50;;
15358;SDS011;7779;49.596;11.070;2024-02-23T05:31:14;2.60;;;0.47;;
15358;SDS011;7779;49.596;11.070;2024-02-23T05:33:40;2.00;;;0.40;;
15358;SDS011;7779;49.596;11.070;2024-02-23T05:36:06;1.43;;;0.47;;
15358;SDS011;7779;49.596;11.070;2024-02-23T05:38:32;1.10;;;0.30;;
15358;SDS011;7779;49.596;11.070;2024-02-23T05:40:58;1.10;;;0.50;;
15358;SDS011;7779;49.596;11.070;2024-02-23T05:43:24;1.57;;;0.47;;
15358;SDS011;7779;49.596;11.070;2024-02-23T05:45:49;3.37;;;0.50;;
15358;SDS011;7779;49.596;11.070;2024-02-23T05:48:15;0.97;;;0.30;;
15358;SDS011;7779;49.596;11.070;2024-02-23T05:50:41;2.23;;;0.40;;
15358;SDS011;7779;49.596;11.070;2024-02-23T05:53:07;1.70;;;0.40;;
15358;SDS011;7779;49.596;11.070;2024-02-23T05:55:32;1.67;;;0.40;;
15358;SDS011;7779;49.596;11.070;2024-02-23T05:57:58;1.17;;;0.37;;
15358;SDS011;7779;49.596;11.070;2024-02-23T06:00:24;2.50;;;0.47;;
15358;SDS011;7779;49.596;11.070;2024-02-23T06:02:50;1.80;;;0.40;;
15358;SDS011;7779;49.596;11.070;2024-02-23T06:05:16;1.07;;;0.30;;
15358;SDS011;7779;49.596;11.070;2024-02-23T06:07:41;0.97;;;0.27;;
15358;SDS011;7779;49.596;11.070;2024-02-23T06:10:07;0.97;;;0.33;;
15358;SDS011;7779;49.596;11.070;2024-02-23T06:12:33;0.93;;;0.50;;
15358;SDS011;7779;49.596;11.070;2024-02-23T06:14:59;1.47;;;0.50;;
15358;SDS011;7779;49.596;11.070;2024-02-23T06:17:24;1.53;;;0.63;;
15358;SDS011;7779;49.596;11.070;2024-02-23T06:19:50;1.40;;;0.57;;
15358;SDS011;7779;49.596;11.070;2024-02-23T06:22:18;2.00;;;0.47;;
15358;SDS011;7779;49.596;11.070;2024-02-23T06:24:46;1.87;;;0.40;;
15358;SDS011;7779;49.596;11.070;2024-02-23T06:27:13;1.03;;;0.40;;
15358;SDS011;7779;49.596;11.070;2024-02-23T06:29:38;1.50;;;0.50;;
15358;SDS011;7779;49.596;11.070;2024-02-23T06:32:04;2.13;;;0.40;;
15358;SDS011;7779;49.596;11.070;2024-02-23T06:34:30;1.53;;;0.30;;
15358;SDS011;7779;49.596;11.070;2024-02-23T06:36:56;0.37;;;0.37;;
15358;SDS011;7779;49.596;11.070;2024-02-23T06:39:22;1.10;;;0.33;;
15358;SDS011;7779;49.596;11.070;2024-02-23T06:41:48;1.00;;;0.43;;
15358;SDS011;7779;49.596;11.070;2024-02-23T06:44:14;1.67;;;0.40;;
15358;SDS011;7779;49.596;11.070;2024-02-23T06:46:39;1.83;;;0.60;;
15358;SDS011;7779;49.596;11.070;2024-02-23T06:49:06;1.53;;;0.30;;
15358;SDS011;7779;49.596;11.070;2024-02-23T06:51:32;1.67;;;0.50;;
15358;SDS011;7779;49.596;11.070;2024-02-23T06:53:58;1.17;;;0.40;;
15358;SDS011;7779;49.596;11.070;2024-02-23T06:56:24;1.97;;;0.70;;
15358;SDS011;7779;49.596;11.070;2024-02-23T06:58:49;2.53;;;0.80;;
15358;SDS011;7779;49.596;11.070;2024-02-23T07:01:15;2.17;;;0.90;;
15358;SDS011;7779;49.596;11.070;2024-02-23T07:03:41;2.33;;;1.00;;
15358;SDS011;7779;49.596;11.070;2024-02-23T07:06:09;2.50;;;1.30;;
15358;SDS011;7779;49.596;11.070;2024-02-23T07:08:35;3.13;;;1.10;;
15358;SDS011;7779;49.596;11.070;2024-02-23T07:11:01;1.10;;;0.50;;
15358;SDS011;7779;49.596;11.070;2024-02-23T07:13:27;1.43;;;0.57;;
15358;SDS011;7779;49.596;11.070;2024-02-23T07:15:53;0.93;;;0.53;;
15358;SDS011;7779;49.596;11.070;2024-02-23T07:18:21;1.13;;;0.60;;
15358;SDS011;7779;49.596;11.070;2024-02-23T07:20:47;1.30;;;0.47;;
15358;SDS011;7779;49.596;11.070;2024-02-23T07:23:13;0.90;;;0.43;;
15358;SDS011;7779;49.596;11.070;2024-02-23T07:25:41;1.90;;;0.40;;
15358;SDS011;7779;49.596;11.070;2024-02-23T07:28:07;1.70;;;0.70;;
15358;SDS011;7779;49.596;11.070;2024-02-23T07:30:32;1.07;;;0.50;;
15358;SDS011;7779;49.596;11.070;2024-02-23T07:33:00;1.40;;;0.50;;
15358;SDS011;7779;49.596;11.070;2024-02-23T07:35:26;3.47;;;0.80;;
15358;SDS011;7779;49.596;11.070;2024-02-23T07:37:51;2.07;;;0.60;;
15358;SDS011;7779;49.596;11.070;2024-02-23T07:40:17;1.47;;;0.50;;
15358;SDS011;7779;49.596;11.070;2024-02-23T07:42:43;2.83;;;0.63;;
15358;SDS011;7779;49.596;11.070;2024-02-23T07:45:09;2.07;;;0.90;;
15358;SDS011;7779;49.596;11.070;2024-02-23T07:47:35;1.53;;;0.83;;
15358;SDS011;7779;49.596;11.070;2024-02-23T07:50:02;1.27;;;0.70;;
15358;SDS011;7779;49.596;11.070;2024-02-23T07:52:28;1.67;;;0.50;;
15358;SDS011;7779;49.596;11.070;2024-02-23T07:54:54;1.53;;;0.40;;
15358;SDS011;7779;49.596;11.070;2024-02-23T07:57:20;3.00;;;0.83;;
15358;SDS011;7779;49.596;11.070;2024-02-23T07:59:46;1.33;;;0.70;;
15358;SDS011;7779;49.596;11.070;2024-02-23T08:02:13;0.60;;;0.30;;
15358;SDS011;7779;49.596;11.070;2024-02-23T08:04:40;1.03;;;0.37;;
15358;SDS011;7779;49.596;11.070;2024-02-23T08:07:07;2.40;;;0.70;;
15358;SDS011;7779;49.596;11.070;2024-02-23T08:09:33;2.33;;;0.50;;
15358;SDS011;7779;49.596;11.070;2024-02-23T08:11:59;1.40;;;0.40;;
15358;SDS011;7779;49.596;11.070;2024-02-23T08:14:24;2.50;;;0.30;;
15358;SDS011;7779;49.596;11.070;2024-02-23T08:16:50;1.53;;;0.50;;
15358;SDS011;7779;49.596;11.070;2024-02-23T08:19:16;2.07;;;0.60;;
15358;SDS011;7779;49.596;11.070;2024-02-23T08:21:42;1.20;;;0.70;;
15358;SDS011;7779;49.596;11.070;2024-02-23T08:24:08;0.73;;;0.33;;
15358;SDS011;7779;49.596;11.070;2024-02-23T08:26:34;1.10;;;0.50;;
15358;SDS011;7779;49.596;11.070;2024-02-23T08:29:06;1.70;;;0.40;;
15358;SDS011;7779;49.596;11.070;2024-02-23T08:31:31;0.83;;;0.50;;
15358;SDS011;7779;49.596;11.070;2024-02-23T08:33:57;1.23;;;0.50;;
15358;SDS011;7779;49.596;11.070;2024-02-23T08:36:23;1.23;;;0.53;;
15358;SDS011;7779;49.596;11.070;2024-02-23T08:38:48;0.73;;;0.40;;
15358;SDS011;7779;49.596;11.070;2024-02-23T08:41:14;6.30;;;0.47;;
15358;SDS011;7779;49.596;11.070;2024-02-23T08:43:40;0.83;;;0.47;;
15358;SDS011;7779;49.596;11.070;2024-02-23T08:46:06;1.87;;;0.50;;
15358;SDS011;7779;49.596;11.070;2024-02-23T08:48:31;1.83;;;0.57;;
15358;SDS011;7779;49.596;11.070;2024-02-23T08:50:57;1.43;;;0.60;;
15358;SDS011;7779;49.596;11.070;2024-02-23T08:53:23;1.13;;;0.50;;
15358;SDS011;7779;49.596;11.070;2024-02-23T08:55:48;1.50;;;0.67;;
15358;SDS011;7779;49.596;11.070;2024-02-23T08:58:14;3.20;;;0.60;;
15358;SDS011;7779;49.596;11.070;2024-02-23T09:00:40;1.57;;;0.40;;
15358;SDS011;7779;49.596;11.070;2024-02-23T09:03:06;0.93;;;0.40;;
15358;SDS011;7779;49.596;11.070;2024-02-23T09:05:32;0.70;;;0.50;;
15358;SDS011;7779;49.596;11.070;2024-02-23T09:07:57;1.00;;;0.47;;
15358;SDS011;7779;49.596;11.070;2024-02-23T09:10:23;1.63;;;0.37;;
15358;SDS011;7779;49.596;11.070;2024-02-23T09:12:49;2.60;;;0.50;;
15358;SDS011;7779;49.596;11.070;2024-02-23T09:15:15;1.33;;;0.40;;
15358;SDS011;7779;49.596;11.070;2024-02-23T09:17:40;1.43;;;0.50;;
15358;SDS011;7779;49.596;11.070;2024-02-23T09:20:07;1.10;;;0.30;;
15358;SDS011;7779;49.596;11.070;2024-02-23T09:22:33;1.57;;;0.27;;
15358;SDS011;7779;49.596;11.070;2024-02-23T09:24:59;0.83;;;0.20;;
15358;SDS011;7779;49.596;11.070;2024-02-23T09:27:25;2.00;;;0.47;;
15358;SDS011;7779;49.596;11.070;2024-02-23T09:29:51;0.40;;;0.40;;
15358;SDS011;7779;49.596;11.070;2024-02-23T09:32:17;1.63;;;0.40;;
15358;SDS011;7779;49.596;11.070;2024-02-23T09:34:43;1.40;;;0.30;;
15358;SDS011;7779;49.596;11.070;2024-02-23T09:37:08;0.57;;;0.30;;
15358;SDS011;7779;49.596;11.070;2024-02-23T09:39:35;1.03;;;0.40;;
15358;SDS011;7779;49.596;11.070;2024-02-23T09:42:00;2.20;;;0.50;;
15358;SDS011;7779;49.596;11.070;2024-02-23T09:44:34;1.50;;;0.40;;
15358;SDS011;7779;49.596;11.070;2024-02-23T09:47:01;0.50;;;0.40;;
15358;SDS011;7779;49.596;11.070;2024-02-23T09:49:39;1.23;;;0.60;;
15358;SDS011;7779;49.596;11.070;2024-02-23T09:52:09;3.63;;;0.60;;
15358;SDS011;7779;49.596;11.070;2024-02-23T09:54:36;1.50;;;0.40;;
15358;SDS011;7779;49.596;11.070;2024-02-23T09:57:08;1.50;;;0.47;;
15358;SDS011;7779;49.596;11.070;2024-02-23T09:59:35;1.17;;;0.37;;
15358;SDS011;7779;49.596;11.070;2024-02-23T10:02:02;1.47;;;0.40;;
15358;SDS011;7779;49.596;11.070;2024-02-23T10:04:38;1.83;;;0.40;;
15358;SDS011;7779;49.596;11.070;2024-02-23T10:07:06;4.40;;;0.50;;
15358;SDS011;7779;49.596;11.070;2024-02-23T10:09:32;1.03;;;0.40;;
15358;SDS011;7779;49.596;11.070;2024-02-23T10:11:57;0.57;;;0.40;;
15358;SDS011;7779;49.596;11.070;2024-02-23T10:14:23;0.60;;;0.40;;
15358;SDS011;7779;49.596;11.070;2024-02-23T10:16:50;2.27;;;0.50;;
15358;SDS011;7779;49.596;11.070;2024-02-23T10:19:19;0.80;;;0.50;;
15358;SDS011;7779;49.596;11.070;2024-02-23T10:21:45;1.23;;;0.43;;
15358;SDS011;7779;49.596;11.070;2024-02-23T10:24:11;0.70;;;0.50;;
15358;SDS011;7779;49.596;11.070;2024-02-23T10:26:37;1.60;;;0.40;;
15358;SDS011;7779;49.596;11.070;2024-02-23T10:29:02;0.50;;;0.40;;
15358;SDS011;7779;49.596;11.070;2024-02-23T10:31:30;4.63;;;0.50;;
15358;SDS011;7779;49.596;11.070;2024-02-23T10:34:07;0.90;;;0.33;;
15358;SDS011;7779;49.596;11.070;2024-02-23T10:36:37;0.90;;;0.30;;
15358;SDS011;7779;49.596;11.070;2024-02-23T10:39:08;1.00;;;0.40;;
15358;SDS011;7779;49.596;11.070;2024-02-23T10:41:35;1.77;;;0.30;;
15358;SDS011;7779;49.596;11.070;2024-02-23T10:44:03;1.13;;;0.30;;
15358;SDS011;7779;49.596;11.070;2024-02-23T10:46:30;0.97;;;0.50;;
15358;SDS011;7779;49.596;11.070;2024-02-23T10:48:57;0.73;;;0.43;;
15358;SDS011;7779;49.596;11.070;2024-02-23T10:51:27;1.47;;;0.30;;
15358;SDS011;7779;49.596;11.070;2024-02-23T10:53:54;1.33;;;0.40;;
15358;SDS011;7779;49.596;11.070;2024-02-23T10:56:20;1.40;;;0.50;;
15358;SDS011;7779;49.596;11.070;2024-02-23T10:58:47;1.10;;;0.30;;
15358;SDS011;7779;49.596;11.070;2024-02-23T11:01:13;1.30;;;0.40;;
15358;SDS011;7779;49.596;11.070;2024-02-23T11:03:41;1.77;;;0.60;;
15358;SDS011;7779;49.596;11.070;2024-02-23T11:06:13;0.87;;;0.30;;
15358;SDS011;7779;49.596;11.070;2024-02-23T11:08:39;1.03;;;0.50;;
15358;SDS011;7779;49.596;11.070;2024-02-23T11:11:08;0.53;;;0.30;;
15358;SDS011;7779;49.596;11.070;2024-02-23T11:13:36;0.70;;;0.40;;
15358;SDS011;7779;49.596;11.070;2024-02-23T11:16:06;1.57;;;0.47;;
15358;SDS011;7779;49.596;11.070;2024-02-23T11:18:36;1.13;;;0.33;;
15358;SDS011;7779;49.596;11.070;2024-02-23T11:21:05;1.83;;;0.47;;
15358;SDS011;7779;49.596;11.070;2024-02-23T11:23:41;1.67;;;0.50;;
15358;SDS011;7779;49.596;11.070;2024-02-23T11:26:09;0.80;;;0.40;;
15358;SDS011;7779;49.596;11.070;2024-02-23T11:28:49;1.03;;;0.40;;
15358;SDS011;7779;49.596;11.070;2024-02-23T11:31:21;0.80;;;0.50;;
15358;SDS011;7779;49.596;11.070;2024-02-23T11:33:49;1.23;;;0.47;;
15358;SDS011;7779;49.596;11.070;2024-02-23T11:36:23;0.80;;;0.40;;
15358;SDS011;7779;49.596;11.070;2024-02-23T11:39:01;1.50;;;0.30;;
15358;SDS011;7779;49.596;11.070;2024-02-23T11:41:28;0.63;;;0.30;;
15358;SDS011;7779;49.596;11.070;2024-02-23T11:43:54;1.13;;;0.43;;
15358;SDS011;7779;49.596;11.070;2024-02-23T11:46:21;3.10;;;0.50;;
15358;SDS011;7779;49.596;11.070;2024-02-23T11:48:48;1.20;;;0.43;;
15358;SDS011;7779;49.596;11.070;2024-02-23T11:51:20;1.37;;;0.50;;
15358;SDS011;7779;49.596;11.070;2024-02-23T11:53:48;0.40;;;0.33;;
15358;SDS011;7779;49.596;11.070;2024-02-23T11:56:14;1.27;;;0.43;;
15358;SDS011;7779;49.596;11.070;2024-02-23T11:58:40;0.40;;;0.30;;
15358;SDS011;7779;49.596;11.070;2024-02-23T12:01:06;0.57;;;0.30;;
15358;SDS011;7779;49.596;11.070;2024-02-23T12:03:32;1.17;;;0.30;;
15358;SDS011;7779;49.596;11.070;2024-02-23T12:05:59;2.37;;;0.57;;
15358;SDS011;7779;49.596;11.070;2024-02-23T12:08:26;0.60;;;0.20;;
15358;SDS011;7779;49.596;11.070;2024-02-23T12:10:55;0.83;;;0.30;;
15358;SDS011;7779;49.596;11.070;2024-02-23T12:13:22;2.13;;;1.03;;
15358;SDS011;7779;49.596;11.070;2024-02-23T12:15:48;0.90;;;0.50;;
15358;SDS011;7779;49.596;11.070;2024-02-23T12:18:18;1.47;;;0.77;;
15358;SDS011;7779;49.596;11.070;2024-02-23T12:20:51;0.93;;;0.70;;
15358;SDS011;7779;49.596;11.070;2024-02-23T12:23:17;1.60;;;0.97;;
15358;SDS011;7779;49.596;11.070;2024-02-23T12:25:53;1.97;;;1.07;;
15358;SDS011;7779;49.596;11.070;2024-02-23T12:28:22;2.57;;;0.80;;
15358;SDS011;7779;49.596;11.070;2024-02-23T12:30:58;1.07;;;0.60;;
15358;SDS011;7779;49.596;11.070;2024-02-23T12:33:27;1.10;;;0.80;;
15358;SDS011;7779;49.596;11.070;2024-02-23T12:36:05;0.97;;;0.80;;
15358;SDS011;7779;49.596;11.070;2024-02-23T12:38:32;1.03;;;0.70;;
15358;SDS011;7779;49.596;11.070;2024-02-23T12:40:59;1.50;;;0.93;;
15358;SDS011;7779;49.596;11.070;2024-02-23T12:43:28;1.10;;;0.80;;
15358;SDS011;7779;49.596;11.070;2024-02-23T12:45:54;1.93;;;1.00;;
15358;SDS011;7779;49.596;11.070;2024-02-23T12:48:21;1.00;;;0.70;;
15358;SDS011;7779;49.596;11.070;2024-02-23T12:50:48;1.70;;;0.60;;
15358;SDS011;7779;49.596;11.070;2024-02-23T12:56:15;0.80;;;0.60;;
15358;SDS011;7779;49.596;11.070;2024-02-23T12:58:43;1.90;;;0.60;;
15358;SDS011;7779;49.596;11.070;2024-02-23T13:01:09;1.27;;;0.77;;
15358;SDS011;7779;49.596;11.070;2024-02-23T13:03:36;1.57;;;0.80;;
15358;SDS011;7779;49.596;11.070;2024-02-23T13:06:06;1.23;;;0.60;;
15358;SDS011;7779;49.596;11.070;2024-02-23T13:08:32;0.97;;;0.60;;
15358;SDS011;7779;49.596;11.070;2024-02-23T13:10:59;1.03;;;0.67;;
15358;SDS011;7779;49.596;11.070;2024-02-23T13:13:25;1.67;;;1.00;;
15358;SDS011;7779;49.596;11.070;2024-02-23T13:15:52;1.77;;;0.60;;
15358;SDS011;7779;49.596;11.070;2024-02-23T13:18:18;0.50;;;0.50;;
15358;SDS011;7779;49.596;11.070;2024-02-23T13:20:44;1.17;;;0.50;;
15358;SDS011;7779;49.596;11.070;2024-02-23T13:23:11;2.00;;;0.70;;
15358;SDS011;7779;49.596;11.070;2024-02-23T13:25:40;1.80;;;0.80;;
15358;SDS011;7779;49.596;11.070;2024-02-23T13:28:07;0.60;;;0.43;;
15358;SDS011;7779;49.596;11.070;2024-02-23T13:30:34;0.83;;;0.40;;
15358;SDS011;7779;49.596;11.070;2024-02-23T13:33:01;0.40;;;0.40;;
15358;SDS011;7779;49.596;11.070;2024-02-23T13:35:28;0.83;;;0.60;;
15358;SDS011;7779;49.596;11.070;2024-02-23T13:37:54;1.40;;;0.50;;
15358;SDS011;7779;49.596;11.070;2024-02-23T13:40:20;0.67;;;0.50;;
15358;SDS011;7779;49.596;11.070;2024-02-23T13:42:46;0.73;;;0.30;;
15358;SDS011;7779;49.596;11.070;2024-02-23T13:45:15;1.00;;;0.53;;
15358;SDS011;7779;49.596;11.070;2024-02-23T13:47:42;1.43;;;0.50;;
15358;SDS011;7779;49.596;11.070;2024-02-23T13:50:19;1.03;;;0.50;;
15358;SDS011;7779;49.596;11.070;2024-02-23T13:52:45;1.40;;;0.70;;
15358;SDS011;7779;49.596;11.070;2024-02-23T13:55:11;0.97;;;0.50;;
15358;SDS011;7779;49.596;11.070;2024-02-23T13:57:36;0.73;;;0.40;;
15358;SDS011;7779;49.596;11.070;2024-02-23T14:00:03;0.77;;;0.50;;
15358;SDS011;7779;49.596;11.070;2024-02-23T14:02:36;3.20;;;0.60;;
15358;SDS011;7779;49.596;11.070;2024-02-23T14:05:02;1.20;;;0.50;;
15358;SDS011;7779;49.596;11.070;2024-02-23T14:07:28;0.50;;;0.30;;
15358;SDS011;7779;49.596;11.070;2024-02-23T14:09:54;1.40;;;0.33;;
15358;SDS011;7779;49.596;11.070;2024-02-23T14:12:19;2.30;;;0.23;;
15358;SDS011;7779;49.596;11.070;2024-02-23T14:14:45;0.90;;;0.40;;
15358;SDS011;7779;49.596;11.070;2024-02-23T14:17:11;1.70;;;0.50;;
15358;SDS011;7779;49.596;11.070;2024-02-23T14:19:37;1.23;;;0.50;;
15358;SDS011;7779;49.596;11.070;2024-02-23T14:22:02;2.27;;;0.60;;
15358;SDS011;7779;49.596;11.070;2024-02-23T14:24:28;1.40;;;0.70;;
15358;SDS011;7779;49.596;11.070;2024-02-23T14:26:54;1.57;;;0.70;;
15358;SDS011;7779;49.596;11.070;2024-02-23T14:29:20;2.17;;;0.80;;
15358;SDS011;7779;49.596;11.070;2024-02-23T14:31:45;0.90;;;0.67;;
15358;SDS011;7779;49.596;11.070;2024-02-23T14:34:11;2.17;;;1.00;;
15358;SDS011;7779;49.596;11.070;2024-02-23T14:36:37;1.77;;;1.20;;
15358;SDS011;7779;49.596;11.070;2024-02-23T14:39:03;1.57;;;0.77;;
15358;SDS011;7779;49.596;11.070;2024-02-23T14:41:29;2.03;;;0.73;;
15358;SDS011;7779;49.596;11.070;2024-02-23T14:43:55;1.63;;;0.70;;
15358;SDS011;7779;49.596;11.070;2024-02-23T14:46:21;1.07;;;0.50;;
15358;SDS011;7779;49.596;11.070;2024-02-23T14:48:47;0.80;;;0.40;;